NCAR-RAP Real-Time Weather Data

Output produced by METARs form (01 December 2020  18:11 UTC)
found at http://weather.rap.ucar.edu/surface/
 
KATL 011652Z 29010KT 10SM FEW042 03/M07 A3015 RMK AO2 SLP216 T00331067
KATL 011552Z 32015G26KT 10SM FEW034 02/M07 A3016 RMK AO2 PK WND 28027/1458 SLP220 T00221072
KATL 011452Z 29014G24KT 10SM FEW032 SCT040 01/M06 A3014 RMK AO2 PK WND 31026/1441 SLP216 T00111061 51020
KATL 011352Z 29013G18KT 10SM FEW015 FEW040 M01/M05 A3013 RMK AO2 SLP211 T10061050
KATL 011252Z 28009KT 10SM FEW040 M02/M06 A3011 RMK AO2 SLP205 T10171056
KATL 011152Z 28010KT 10SM FEW040 M02/M06 A3008 RMK AO2 SLP196 60000 T10171061 10011 21017 53017
KATL 011052Z 28010KT 10SM FEW040 M02/M06 A3005 RMK AO2 SLP185 T10171061
KATL 010952Z 28009KT 10SM FEW040 M01/M06 A3004 RMK AO2 SLP179 T10111056
KATL 010852Z 29010G21KT 10SM FEW025 SCT044 M01/M06 A3003 RMK AO2 SLP178 60000 T10061056 53011
KATL 010752Z 29016G22KT 10SM SCT025 BKN037 BKN044 01/M04 A3001 RMK AO2 SLP170 T00111044
KATL 010652Z 29013G26KT 10SM BKN024 OVC035 01/M04 A3000 RMK AO2 PK WND 29026/0609 SNB06E41 SLP165 P0000 T00111039
KATL 010642Z 30019G25KT 10SM BKN022 OVC030 01/M04 A3000 RMK AO2 PK WND 29026/0609 SNB06E41 P0000 T00111039
KATL 010552Z 29013G25KT 10SM SCT022 BKN030 BKN060 01/M03 A3000 RMK AO2 SNB0454E50 SLP165 P0000 60000 T00111033 10028 20011 51010
KATL 010452Z 29015G25KT 10SM SCT022 BKN030 OVC060 01/M03 A2999 RMK AO2 PK WND 31028/0354 SNE06B43E52 SLP164 P0000 T00111033 401330011